createdAt,value
2019-04-02T00:00:33.468Z,81.62
2019-04-02T00:01:33.454Z,81.52
2019-04-02T00:02:33.443Z,81.90
2019-04-02T00:03:33.433Z,82.09
2019-04-02T00:04:33.422Z,81.43
2019-04-02T00:05:33.446Z,81.33
2019-04-02T00:06:33.402Z,82.24
2019-04-02T00:07:33.393Z,81.96
2019-04-02T00:08:33.380Z,83.00
2019-04-02T00:09:33.369Z,82.53
2019-04-02T00:10:33.358Z,82.62
2019-04-02T00:11:33.348Z,83.10
2019-04-02T00:12:33.338Z,83.67
2019-04-02T00:13:33.338Z,84.33
2019-04-02T00:14:33.319Z,84.72
2019-04-02T00:15:33.305Z,84.91
2019-04-02T00:16:33.294Z,85.05
2019-04-02T00:17:33.285Z,85.76
2019-04-02T00:18:33.274Z,85.62
2019-04-02T00:19:34.333Z,86.00
2019-04-02T00:20:33.655Z,86.38
2019-04-02T00:21:33.243Z,86.95
2019-04-02T00:22:33.233Z,86.38
2019-04-02T00:23:33.221Z,86.47
2019-04-02T00:24:33.212Z,87.05
2019-04-02T00:25:33.200Z,86.86
2019-04-02T00:26:33.190Z,87.34
2019-04-02T00:27:33.178Z,87.34
2019-04-02T00:28:33.169Z,87.43
2019-04-02T00:29:33.158Z,86.86
2019-04-02T00:30:33.147Z,87.14
2019-04-02T00:31:33.136Z,87.62
2019-04-02T00:32:33.125Z,87.52
2019-04-02T00:33:33.118Z,87.52
2019-04-02T00:34:33.108Z,87.90
2019-04-02T00:35:33.095Z,86.86
2019-04-02T00:36:33.082Z,86.38
2019-04-02T00:37:33.073Z,86.76
2019-04-02T00:38:33.061Z,86.47
2019-04-02T00:39:34.112Z,86.29
2019-04-02T00:40:33.039Z,86.43
2019-04-02T00:41:33.029Z,86.38
2019-04-02T00:42:33.019Z,85.81
2019-04-02T00:43:33.007Z,85.81
2019-04-02T00:44:32.997Z,85.47
2019-04-02T00:45:32.990Z,85.66
2019-04-02T00:46:32.976Z,86.00
2019-04-02T00:47:32.964Z,86.00
2019-04-02T00:48:33.003Z,85.72
2019-04-02T00:49:32.942Z,86.00
2019-04-02T00:50:32.942Z,85.91
2019-04-02T00:51:32.920Z,85.86
2019-04-02T00:52:32.910Z,85.76
2019-04-02T00:53:33.221Z,85.91
2019-04-02T00:54:32.889Z,85.81
2019-04-02T00:55:32.877Z,86.19
2019-04-02T00:56:32.868Z,85.15
2019-04-02T00:57:32.856Z,85.34
2019-04-02T00:58:32.850Z,85.91
2019-04-02T00:59:32.834Z,86.05
2019-04-02T01:00:32.822Z,86.47
2019-04-02T01:01:32.812Z,86.29
2019-04-02T01:02:32.801Z,86.47
2019-04-02T01:03:32.790Z,85.72
2019-04-02T01:04:32.779Z,85.38
2019-04-02T01:05:32.769Z,85.05
2019-04-02T01:06:34.034Z,84.91
2019-04-02T01:07:32.863Z,85.66
2019-04-02T01:08:32.736Z,85.28
2019-04-02T01:09:32.728Z,85.15
2019-04-02T01:10:32.715Z,85.47
2019-04-02T01:11:32.707Z,85.91
2019-04-02T01:12:32.693Z,85.53
2019-04-02T01:13:32.684Z,84.81
2019-04-02T01:14:32.672Z,84.24
2019-04-02T01:15:32.659Z,83.95
2019-04-02T01:16:32.648Z,84.14
2019-04-02T01:17:32.639Z,83.48
2019-04-02T01:18:32.677Z,83.86
2019-04-02T01:19:32.615Z,83.48
2019-04-02T01:20:32.606Z,83.19
2019-04-02T01:21:32.594Z,83.86
2019-04-02T01:22:33.077Z,83.10
2019-04-02T01:23:32.572Z,83.29
2019-04-02T01:24:32.562Z,83.19
2019-04-02T01:25:32.550Z,83.10
2019-04-02T01:26:32.539Z,83.48
2019-04-02T01:27:32.527Z,83.29
2019-04-02T01:28:32.519Z,82.71
2019-04-02T01:29:32.506Z,83.10
2019-04-02T01:30:32.495Z,83.39
2019-04-02T01:31:32.487Z,83.86
2019-04-02T01:32:32.472Z,83.76
2019-04-02T01:33:32.464Z,83.48
2019-04-02T01:34:32.452Z,83.39
2019-04-02T01:35:32.439Z,82.53
2019-04-02T01:36:32.428Z,82.71
2019-04-02T01:37:33.439Z,82.91
2019-04-02T01:38:32.814Z,82.91
2019-04-02T01:39:32.394Z,82.71
2019-04-02T01:40:32.383Z,83.10
2019-04-02T01:41:32.372Z,83.10
2019-04-02T01:42:32.363Z,83.58
2019-04-02T01:43:32.350Z,83.48
2019-04-02T01:44:32.338Z,83.10
2019-04-02T01:45:32.327Z,83.10
2019-04-02T01:46:32.317Z,83.67
2019-04-02T01:47:32.304Z,83.29
2019-04-02T01:48:32.343Z,83.25
2019-04-02T01:49:32.283Z,83.19
2019-04-02T01:50:32.272Z,84.05
2019-04-02T01:51:32.260Z,84.10
2019-04-02T01:52:32.587Z,83.44
2019-04-02T01:53:32.238Z,84.10
2019-04-02T01:54:32.227Z,83.53
2019-04-02T01:55:32.214Z,83.15
2019-04-02T01:56:32.204Z,83.91
2019-04-02T01:57:32.194Z,83.91
2019-04-02T01:58:32.181Z,83.91
2019-04-02T01:59:32.170Z,83.91
2019-04-02T02:00:32.159Z,83.72
2019-04-02T02:01:32.149Z,84.58
2019-04-02T02:02:32.137Z,83.95
2019-04-02T02:03:32.125Z,83.95
2019-04-02T02:04:32.115Z,83.86
2019-04-02T02:05:32.103Z,84.01
2019-04-02T02:06:32.093Z,83.82
2019-04-02T02:07:32.081Z,83.91
2019-04-02T02:08:32.076Z,83.53
2019-04-02T02:09:32.059Z,84.05
2019-04-02T02:10:32.241Z,83.82
2019-04-02T02:11:32.036Z,84.05
2019-04-02T02:12:32.025Z,84.01
2019-04-02T02:13:32.013Z,84.01
2019-04-02T02:14:32.003Z,84.58
2019-04-02T02:15:31.991Z,84.20
2019-04-02T02:16:31.979Z,84.67
2019-04-02T02:17:31.969Z,84.67
2019-04-02T02:18:31.960Z,84.67
2019-04-02T02:19:31.945Z,84.48
2019-04-02T02:20:31.937Z,84.77
2019-04-02T02:21:31.924Z,84.58
2019-04-02T02:22:31.913Z,85.15
2019-04-02T02:23:31.901Z,85.43
2019-04-02T02:24:31.891Z,85.43
2019-04-02T02:25:31.879Z,85.53
2019-04-02T02:26:31.868Z,85.81
2019-04-02T02:27:31.856Z,84.95
2019-04-02T02:28:32.294Z,85.53
2019-04-02T02:29:31.835Z,85.62
2019-04-02T02:30:31.835Z,86.00
2019-04-02T02:31:31.812Z,86.00
2019-04-02T02:32:31.801Z,85.91
2019-04-02T02:33:31.790Z,86.19
2019-04-02T02:34:31.781Z,85.91
2019-04-02T02:35:31.767Z,86.67
2019-04-02T02:36:31.774Z,85.91
2019-04-02T02:37:31.747Z,85.72
2019-04-02T02:38:31.735Z,85.53
2019-04-02T02:39:31.724Z,85.81
2019-04-02T02:40:31.713Z,85.91
2019-04-02T02:41:31.704Z,85.62
2019-04-02T02:42:31.693Z,85.43
2019-04-02T02:43:31.679Z,85.43
2019-04-02T02:44:31.670Z,85.43
2019-04-02T02:45:31.658Z,85.53
2019-04-02T02:46:31.648Z,84.95
2019-04-02T02:47:31.637Z,84.67
2019-04-02T02:48:31.625Z,84.67
2019-04-02T02:49:31.666Z,85.24
2019-04-02T02:50:31.603Z,85.53
2019-04-02T02:51:31.591Z,85.34
2019-04-02T02:52:31.580Z,86.19
2019-04-02T02:53:31.569Z,85.72
2019-04-02T02:54:31.563Z,85.15
2019-04-02T02:55:31.547Z,85.91
2019-04-02T02:56:31.539Z,85.81
2019-04-02T02:57:31.526Z,85.91
2019-04-02T02:58:31.515Z,85.91
2019-04-02T02:59:31.507Z,85.53
2019-04-02T03:00:31.500Z,85.34
2019-04-02T03:01:31.480Z,85.72
2019-04-02T03:02:31.469Z,86.57
2019-04-02T03:03:31.457Z,86.19
2019-04-02T03:04:31.459Z,85.72
2019-04-02T03:05:32.018Z,86.10
2019-04-02T03:06:32.783Z,85.53
2019-04-02T03:07:32.953Z,86.10
2019-04-02T03:08:33.132Z,85.81
2019-04-02T03:09:33.013Z,86.10
2019-04-02T03:10:31.400Z,86.00
2019-04-02T03:11:31.369Z,85.62
2019-04-02T03:12:31.357Z,85.81
2019-04-02T03:13:31.346Z,86.38
2019-04-02T03:14:31.336Z,86.76
2019-04-02T03:15:31.324Z,86.67
2019-04-02T03:16:31.313Z,86.19
2019-04-02T03:17:31.302Z,86.57
2019-04-02T03:18:31.291Z,86.76
2019-04-02T03:19:31.280Z,86.47
2019-04-02T03:20:31.270Z,86.72
2019-04-02T03:21:31.257Z,87.01
2019-04-02T03:22:31.246Z,87.10
2019-04-02T03:23:31.236Z,87.86
2019-04-02T03:24:31.225Z,88.71
2019-04-02T03:25:31.210Z,88.53
2019-04-02T03:26:31.200Z,89.09
2019-04-02T03:27:31.187Z,89.00
2019-04-02T03:28:31.177Z,88.90
2019-04-02T03:29:31.170Z,89.67
2019-04-02T03:30:31.156Z,90.05
2019-04-02T03:31:34.751Z,90.14
2019-04-02T03:32:31.133Z,90.61
2019-04-02T03:33:31.122Z,90.23
2019-04-02T03:34:31.119Z,90.61
2019-04-02T03:35:33.364Z,90.99
2019-04-02T03:36:31.092Z,90.61
2019-04-02T03:37:31.076Z,90.52
2019-04-02T03:38:31.065Z,89.38
2019-04-02T03:39:31.053Z,89.09
2019-04-02T03:40:31.042Z,88.90
2019-04-02T03:41:31.043Z,88.81
2019-04-02T03:42:31.037Z,88.62
2019-04-02T03:43:31.009Z,88.71
2019-04-02T03:44:30.997Z,88.15
2019-04-02T03:45:30.984Z,88.62
2019-04-02T03:46:30.974Z,88.81
2019-04-02T03:47:30.962Z,88.71
2019-04-02T03:48:30.950Z,88.43
2019-04-02T03:49:30.938Z,89.67
2019-04-02T03:50:30.927Z,89.47
2019-04-02T03:51:30.919Z,89.47
2019-04-02T03:52:30.903Z,89.38
2019-04-02T03:53:30.893Z,89.47
2019-04-02T03:54:30.889Z,89.47
2019-04-02T03:55:30.873Z,90.14
2019-04-02T03:56:30.859Z,90.14
2019-04-02T03:57:30.852Z,90.14
2019-04-02T03:58:30.835Z,89.38
2019-04-02T03:59:30.831Z,90.14
2019-04-02T04:00:30.811Z,89.38
2019-04-02T04:01:30.812Z,88.90
2019-04-02T04:02:31.350Z,90.14
2019-04-02T04:03:32.150Z,89.38
2019-04-02T04:04:33.375Z,89.76
2019-04-02T04:05:30.754Z,90.05
2019-04-02T04:06:30.743Z,90.42
2019-04-02T04:07:30.731Z,89.95
2019-04-02T04:08:30.719Z,89.57
2019-04-02T04:09:30.710Z,89.38
2019-04-02T04:10:30.696Z,89.28
2019-04-02T04:11:30.683Z,89.38
2019-04-02T04:12:30.672Z,89.57
2019-04-02T04:13:30.663Z,89.28
2019-04-02T04:14:30.651Z,88.90
2019-04-02T04:15:30.639Z,89.47
2019-04-02T04:16:30.625Z,89.95
2019-04-02T04:17:30.615Z,89.67
2019-04-02T04:18:30.602Z,90.42
2019-04-02T04:19:30.593Z,90.05
2019-04-02T04:20:30.579Z,90.42
2019-04-02T04:21:30.567Z,90.23
2019-04-02T04:22:30.568Z,90.33
2019-04-02T04:23:30.545Z,90.05
2019-04-02T04:24:30.536Z,89.95
2019-04-02T04:25:30.523Z,90.14
2019-04-02T04:26:32.203Z,90.05
2019-04-02T04:27:33.408Z,89.67
2019-04-02T04:28:30.488Z,90.61
2019-04-02T04:29:33.925Z,90.80
2019-04-02T04:30:30.466Z,90.42
2019-04-02T04:31:30.454Z,90.23
2019-04-02T04:32:30.441Z,90.23
2019-04-02T04:33:30.430Z,90.23
2019-04-02T04:34:30.419Z,88.90
2019-04-02T04:35:30.406Z,89.47
2019-04-02T04:36:30.415Z,89.00
2019-04-02T04:37:30.384Z,88.71
2019-04-02T04:38:30.378Z,88.34
2019-04-02T04:39:30.365Z,88.62
2019-04-02T04:40:30.349Z,88.90
2019-04-02T04:41:30.340Z,89.09
2019-04-02T04:42:30.329Z,89.09
2019-04-02T04:43:30.321Z,89.19
2019-04-02T04:44:30.303Z,88.81
2019-04-02T04:45:31.213Z,89.28
2019-04-02T04:46:30.870Z,89.67
2019-04-02T04:47:30.431Z,90.14
2019-04-02T04:48:30.323Z,90.05
2019-04-02T04:49:30.358Z,90.14
2019-04-02T04:50:30.234Z,89.67
2019-04-02T04:51:30.222Z,89.57
2019-04-02T04:52:30.212Z,88.90
2019-04-02T04:53:30.199Z,89.09
2019-04-02T04:54:33.304Z,89.19
2019-04-02T04:55:30.177Z,90.23
2019-04-02T04:56:30.865Z,89.95
2019-04-02T04:57:33.564Z,91.09
2019-04-02T04:58:30.146Z,90.05
2019-04-02T04:59:30.130Z,90.23
2019-04-02T05:00:30.121Z,91.09
2019-04-02T05:01:30.108Z,90.23
2019-04-02T05:02:30.100Z,90.90
2019-04-02T05:03:30.085Z,90.33
2019-04-02T05:04:30.074Z,90.52
2019-04-02T05:05:30.063Z,91.09
2019-04-02T05:06:30.053Z,90.42
2019-04-02T05:07:30.040Z,90.61
2019-04-02T05:08:30.029Z,89.28
2019-04-02T05:09:30.021Z,89.19
2019-04-02T05:10:30.007Z,88.53
2019-04-02T05:11:29.995Z,89.09
2019-04-02T05:12:29.984Z,89.00
2019-04-02T05:13:29.973Z,88.90
2019-04-02T05:14:29.962Z,89.47
2019-04-02T05:15:29.950Z,90.23
2019-04-02T05:16:29.939Z,90.23
2019-04-02T05:17:29.928Z,90.42
2019-04-02T05:18:29.916Z,89.95
2019-04-02T05:19:29.905Z,90.05
2019-04-02T05:20:29.894Z,89.95
2019-04-02T05:21:29.883Z,90.05
2019-04-02T05:22:29.872Z,91.19
2019-04-02T05:23:29.860Z,90.14
2019-04-02T05:24:29.849Z,89.95
2019-04-02T05:25:29.838Z,89.86
2019-04-02T05:26:29.827Z,90.00
2019-04-02T05:27:29.830Z,89.95
2019-04-02T05:28:29.804Z,90.23
2019-04-02T05:29:29.793Z,90.28
2019-04-02T05:30:29.782Z,89.95
2019-04-02T05:31:29.771Z,90.56
2019-04-02T05:32:30.683Z,90.85
2019-04-02T05:33:29.759Z,90.37
2019-04-02T05:34:29.738Z,90.99
2019-04-02T05:35:29.726Z,90.61
2019-04-02T05:36:29.716Z,91.09
2019-04-02T05:37:32.283Z,90.52
2019-04-02T05:38:29.694Z,89.52
2019-04-02T05:39:29.683Z,89.52
2019-04-02T05:40:29.672Z,88.57
2019-04-02T05:41:29.661Z,88.67
2019-04-02T05:42:29.652Z,89.14
2019-04-02T05:43:29.640Z,89.42
2019-04-02T05:44:29.627Z,89.23
2019-04-02T05:45:29.616Z,88.57
2019-04-02T05:46:29.606Z,88.38
2019-04-02T05:47:29.594Z,88.57
2019-04-02T05:48:29.582Z,88.76
2019-04-02T05:49:30.372Z,88.76
2019-04-02T05:50:29.561Z,88.47
2019-04-02T05:51:29.549Z,88.76
2019-04-02T05:52:29.538Z,88.57
2019-04-02T05:53:30.829Z,88.67
2019-04-02T05:54:29.516Z,89.61
2019-04-02T05:55:29.507Z,88.67
2019-04-02T05:56:29.492Z,88.38
2019-04-02T05:57:29.481Z,88.76
2019-04-02T05:58:29.472Z,88.76
2019-04-02T05:59:29.459Z,88.38
2019-04-02T06:00:29.447Z,88.00
2019-04-02T06:01:29.437Z,88.00
2019-04-02T06:02:29.426Z,88.19
2019-04-02T06:03:29.414Z,87.71
2019-04-02T06:04:29.402Z,87.34
2019-04-02T06:05:29.394Z,86.86
2019-04-02T06:06:29.382Z,87.14
2019-04-02T06:07:29.369Z,86.86
2019-04-02T06:08:30.650Z,86.99
2019-04-02T06:09:31.399Z,86.71
2019-04-02T06:10:30.076Z,86.95
2019-04-02T06:11:29.324Z,86.52
2019-04-02T06:12:30.450Z,86.90
2019-04-02T06:13:29.303Z,86.43
2019-04-02T06:14:29.292Z,86.52
2019-04-02T06:15:29.281Z,86.05
2019-04-02T06:16:29.269Z,85.86
2019-04-02T06:17:29.258Z,86.14
2019-04-02T06:18:29.247Z,86.05
2019-04-02T06:19:29.237Z,85.76
2019-04-02T06:20:29.226Z,85.57
2019-04-02T06:21:29.215Z,85.66
2019-04-02T06:22:29.204Z,85.38
2019-04-02T06:23:29.192Z,85.47
2019-04-02T06:24:29.181Z,85.19
2019-04-02T06:25:29.184Z,85.47
2019-04-02T06:26:29.161Z,85.19
2019-04-02T06:27:29.149Z,84.95
2019-04-02T06:28:29.139Z,85.28
2019-04-02T06:29:29.129Z,85.04
2019-04-02T06:30:29.118Z,84.66
2019-04-02T06:31:29.106Z,84.85
2019-04-02T06:32:29.095Z,84.66
2019-04-02T06:33:29.087Z,84.76
2019-04-02T06:34:29.074Z,84.76
2019-04-02T06:35:29.063Z,84.66
2019-04-02T06:36:30.850Z,84.38
2019-04-02T06:37:29.042Z,84.76
2019-04-02T06:38:29.031Z,84.09
2019-04-02T06:39:29.021Z,84.47
2019-04-02T06:40:29.010Z,84.09
2019-04-02T06:41:29.004Z,83.90
2019-04-02T06:42:28.989Z,83.71
2019-04-02T06:43:28.977Z,84.19
2019-04-02T06:44:28.967Z,84.09
2019-04-02T06:45:28.957Z,83.33
2019-04-02T06:46:28.946Z,82.51
2019-04-02T06:47:28.935Z,82.80
2019-04-02T06:48:28.925Z,82.70
2019-04-02T06:49:28.915Z,82.70
2019-04-02T06:50:28.905Z,82.99
2019-04-02T06:51:28.894Z,82.61
2019-04-02T06:52:28.885Z,82.04
2019-04-02T06:53:28.875Z,82.04
2019-04-02T06:54:28.865Z,81.51
2019-04-02T06:55:28.855Z,81.32
2019-04-02T06:56:29.486Z,80.75
2019-04-02T06:57:29.509Z,81.03
2019-04-02T06:58:29.234Z,80.55
2019-04-02T06:59:30.013Z,80.36
2019-04-02T07:00:28.866Z,80.69
2019-04-02T07:01:32.437Z,79.83
2019-04-02T07:02:28.787Z,79.46
2019-04-02T07:03:28.995Z,79.55
2019-04-02T07:04:37.980Z,79.07
2019-04-02T07:05:28.761Z,78.59
2019-04-02T07:06:28.750Z,79.07
2019-04-02T07:07:28.740Z,78.31
2019-04-02T07:08:28.731Z,78.12
2019-04-02T07:09:31.042Z,77.74
2019-04-02T07:10:29.269Z,78.12
2019-04-02T07:11:28.704Z,78.22
2019-04-02T07:12:28.693Z,77.93
2019-04-02T07:13:28.763Z,78.12
2019-04-02T07:14:28.677Z,78.22
2019-04-02T07:15:28.668Z,78.12
2019-04-02T07:16:29.191Z,78.31
2019-04-02T07:17:29.426Z,77.93
2019-04-02T07:18:29.053Z,77.83
2019-04-02T07:19:29.860Z,77.83
2019-04-02T07:20:28.620Z,77.69
2019-04-02T07:21:28.611Z,77.78
2019-04-02T07:22:28.603Z,76.92
2019-04-02T07:23:28.600Z,76.73
2019-04-02T07:24:28.585Z,77.01
2019-04-02T07:25:31.365Z,77.20
2019-04-02T07:26:28.567Z,76.64
2019-04-02T07:27:28.558Z,75.49
2019-04-02T07:28:28.550Z,76.20
2019-04-02T07:29:28.553Z,75.72
2019-04-02T07:30:28.532Z,75.91
2019-04-02T07:31:28.523Z,75.15
2019-04-02T07:32:28.514Z,74.10
2019-04-02T07:33:30.449Z,74.42
2019-04-02T07:34:28.498Z,74.04
2019-04-02T07:35:30.044Z,73.85
2019-04-02T07:36:28.518Z,72.93
2019-04-02T07:37:28.473Z,72.74
2019-04-02T07:38:28.467Z,72.93
2019-04-02T07:39:28.457Z,72.45
2019-04-02T07:40:28.455Z,71.25
2019-04-02T07:41:28.445Z,70.29
2019-04-02T07:42:28.436Z,71.06
2019-04-02T07:43:28.431Z,70.90
2019-04-02T07:44:28.423Z,70.04
2019-04-02T07:45:28.417Z,69.56
2019-04-02T07:46:28.418Z,69.47
2019-04-02T07:47:28.406Z,69.56
2019-04-02T07:48:28.401Z,69.37
2019-04-02T07:49:28.395Z,69.60
2019-04-02T07:50:28.390Z,68.74
2019-04-02T07:51:28.387Z,68.64
2019-04-02T07:52:28.380Z,69.02
2019-04-02T07:53:28.375Z,68.35
2019-04-02T07:54:29.491Z,68.35
2019-04-02T07:55:30.107Z,67.88
2019-04-02T07:56:28.360Z,68.07
2019-04-02T07:57:28.356Z,69.02
2019-04-02T07:58:28.352Z,68.96
2019-04-02T07:59:28.347Z,67.91
2019-04-02T08:00:28.343Z,68.10
2019-04-02T08:01:28.339Z,67.63
2019-04-02T08:02:29.155Z,67.43
2019-04-02T08:03:28.330Z,67.34
2019-04-02T08:04:28.326Z,67.63
2019-04-02T08:05:30.898Z,68.20
2019-04-02T08:06:28.318Z,68.55
2019-04-02T08:07:28.312Z,69.02
2019-04-02T08:08:28.314Z,69.41
2019-04-02T08:09:28.306Z,69.60
2019-04-02T08:10:28.299Z,70.36
2019-04-02T08:11:28.293Z,70.46
2019-04-02T08:12:28.289Z,70.46
2019-04-02T08:13:28.283Z,71.03
2019-04-02T08:14:28.280Z,71.51
2019-04-02T08:15:28.272Z,72.18
2019-04-02T08:16:28.267Z,71.42
2019-04-02T08:17:28.268Z,72.08
2019-04-02T08:18:28.256Z,71.51
2019-04-02T08:19:31.239Z,71.03
2019-04-02T08:20:28.269Z,71.13
2019-04-02T08:21:28.240Z,70.27
2019-04-02T08:22:28.235Z,69.70
2019-04-02T08:23:28.800Z,68.74
2019-04-02T08:24:30.308Z,68.45
2019-04-02T08:25:28.410Z,68.45
2019-04-02T08:26:28.210Z,68.55
2019-04-02T08:27:28.203Z,68.93
2019-04-02T08:28:28.197Z,68.84
2019-04-02T08:29:28.191Z,67.69
2019-04-02T08:30:28.187Z,66.54
2019-04-02T08:31:30.866Z,65.97
2019-04-02T08:32:28.172Z,65.11
2019-04-02T08:33:28.166Z,65.48
2019-04-02T08:34:28.162Z,65.77
2019-04-02T08:35:28.152Z,65.97
2019-04-02T08:36:28.146Z,66.06
2019-04-02T08:37:36.892Z,65.68
2019-04-02T08:38:30.867Z,67.08
2019-04-02T08:39:28.129Z,66.22
2019-04-02T08:40:29.771Z,67.46
2019-04-02T08:41:28.114Z,67.08
2019-04-02T08:42:28.701Z,67.36
2019-04-02T08:43:28.098Z,67.36
2019-04-02T08:44:28.088Z,67.36
2019-04-02T08:45:28.663Z,68.13
2019-04-02T08:46:28.074Z,67.65
2019-04-02T08:47:28.081Z,68.99
2019-04-02T08:48:28.058Z,68.51
2019-04-02T08:49:28.056Z,68.04
2019-04-02T08:50:28.247Z,67.84
2019-04-02T08:51:29.511Z,68.13
2019-04-02T08:52:28.035Z,67.18
2019-04-02T08:53:28.024Z,67.46
2019-04-02T08:54:28.012Z,66.89
2019-04-02T08:55:28.007Z,67.65
2019-04-02T08:56:27.999Z,67.65
2019-04-02T08:57:27.992Z,67.46
2019-04-02T08:58:27.985Z,67.65
2019-04-02T08:59:27.976Z,67.84
2019-04-02T09:00:27.974Z,67.84
2019-04-02T09:01:27.959Z,68.23
2019-04-02T09:02:27.952Z,68.51
2019-04-02T09:03:27.942Z,68.70
2019-04-02T09:04:27.933Z,68.51
2019-04-02T09:05:33.289Z,69.47
2019-04-02T09:06:27.922Z,69.18
2019-04-02T09:07:27.913Z,69.05
2019-04-02T09:08:29.199Z,69.56
2019-04-02T09:09:27.903Z,69.82
2019-04-02T09:10:27.896Z,69.47
2019-04-02T09:11:29.129Z,69.76
2019-04-02T09:12:27.875Z,68.67
2019-04-02T09:13:29.171Z,68.23
2019-04-02T09:14:27.857Z,68.90
2019-04-02T09:15:27.847Z,69.09
2019-04-02T09:16:27.839Z,68.90
2019-04-02T09:17:27.833Z,68.90
2019-04-02T09:18:27.826Z,68.70
2019-04-02T09:19:27.817Z,68.61
2019-04-02T09:20:27.806Z,68.70
2019-04-02T09:21:27.798Z,67.65
2019-04-02T09:22:27.797Z,67.55
2019-04-02T09:23:27.782Z,67.65
2019-04-02T09:24:27.775Z,67.36
2019-04-02T09:25:27.766Z,67.65
2019-04-02T09:26:27.758Z,67.36
2019-04-02T09:27:27.751Z,67.08
2019-04-02T09:28:27.744Z,67.46
2019-04-02T09:29:27.738Z,66.99
2019-04-02T09:30:27.734Z,66.31
2019-04-02T09:31:27.721Z,66.41
2019-04-02T09:32:36.195Z,67.08
2019-04-02T09:33:27.708Z,67.59
2019-04-02T09:34:27.698Z,67.11
2019-04-02T09:35:27.824Z,67.40
2019-04-02T09:36:27.701Z,67.11
2019-04-02T09:37:27.676Z,67.11
2019-04-02T09:38:27.669Z,67.30
2019-04-02T09:39:27.665Z,67.75
2019-04-02T09:40:27.657Z,67.88
2019-04-02T09:41:27.652Z,68.80
2019-04-02T09:42:27.645Z,68.90
2019-04-02T09:43:27.635Z,69.50
2019-04-02T09:44:27.627Z,68.90
2019-04-02T09:45:27.620Z,69.27
2019-04-02T09:46:27.621Z,70.61
2019-04-02T09:47:27.622Z,70.71
2019-04-02T09:48:27.595Z,70.42
2019-04-02T09:49:27.589Z,71.09
2019-04-02T09:50:27.632Z,71.82
2019-04-02T09:51:27.573Z,73.25
2019-04-02T09:52:27.564Z,72.78
2019-04-02T09:53:27.558Z,73.44
2019-04-02T09:54:27.550Z,74.11
2019-04-02T09:55:27.542Z,74.11
2019-04-02T09:56:27.537Z,74.11
2019-04-02T09:57:27.526Z,74.30
2019-04-02T09:58:27.527Z,74.49
2019-04-02T09:59:27.511Z,75.26
2019-04-02T10:00:27.507Z,76.79
2019-04-02T10:01:30.298Z,77.08
2019-04-02T10:02:27.489Z,77.45
2019-04-02T10:03:27.480Z,77.84
2019-04-02T10:04:27.472Z,78.94
2019-04-02T10:05:33.635Z,78.85
2019-04-02T10:06:27.457Z,79.04
2019-04-02T10:07:27.447Z,78.85
2019-04-02T10:08:27.438Z,79.14
2019-04-02T10:09:27.432Z,79.04
2019-04-02T10:10:27.423Z,79.71
2019-04-02T10:11:27.437Z,80.95
2019-04-02T10:12:27.405Z,80.91
2019-04-02T10:13:27.396Z,81.67
2019-04-02T10:14:27.388Z,82.82
2019-04-02T10:15:27.379Z,83.58
2019-04-02T10:16:27.372Z,84.06
2019-04-02T10:17:27.362Z,85.01
2019-04-02T10:18:27.354Z,87.07
2019-04-02T10:19:27.344Z,89.45
2019-04-02T10:20:27.386Z,88.69
2019-04-02T10:21:27.328Z,89.74
2019-04-02T10:22:27.319Z,88.88
2019-04-02T10:23:27.309Z,90.31
2019-04-02T10:24:27.300Z,89.26
2019-04-02T10:25:27.292Z,90.69
2019-04-02T10:26:27.283Z,90.79
2019-04-02T10:27:27.274Z,90.79
2019-04-02T10:28:27.268Z,91.17
2019-04-02T10:29:27.260Z,91.64
2019-04-02T10:30:27.251Z,93.03
2019-04-02T10:31:27.238Z,92.74
2019-04-02T10:32:27.228Z,93.41
2019-04-02T10:33:27.225Z,94.27
2019-04-02T10:34:27.210Z,96.27
2019-04-02T10:35:27.221Z,95.51
2019-04-02T10:36:27.191Z,95.61
2019-04-02T10:37:28.444Z,97.70
2019-04-02T10:38:27.172Z,99.04
2019-04-02T10:39:27.164Z,99.99
2019-04-02T10:40:27.152Z,99.99
2019-04-02T10:41:27.143Z,99.99
2019-04-02T10:42:27.134Z,99.84
2019-04-02T10:43:27.124Z,99.99
2019-04-02T10:44:27.117Z,99.99
2019-04-02T10:45:27.104Z,99.99
2019-04-02T10:46:27.097Z,99.99
2019-04-02T10:47:28.521Z,99.99
2019-04-02T10:48:27.075Z,99.99
2019-04-02T10:49:27.067Z,99.99
2019-04-02T10:50:27.059Z,99.99
2019-04-02T10:51:27.047Z,99.99
2019-04-02T10:52:27.036Z,99.99
2019-04-02T10:53:27.026Z,99.99
2019-04-02T10:54:27.016Z,99.99
2019-04-02T10:55:27.950Z,99.99
2019-04-02T10:56:27.277Z,99.99
2019-04-02T10:57:26.987Z,99.99
2019-04-02T10:58:33.008Z,99.99
2019-04-02T10:59:26.968Z,99.99
2019-04-02T11:00:26.957Z,99.99
2019-04-02T11:01:26.972Z,99.99
2019-04-02T11:02:26.952Z,99.99
2019-04-02T11:03:26.926Z,99.99
2019-04-02T11:04:26.917Z,99.99
2019-04-02T11:05:26.907Z,99.99
2019-04-02T11:06:26.897Z,99.99
2019-04-02T11:07:26.887Z,99.99
2019-04-02T11:08:26.877Z,99.99
2019-04-02T11:09:26.868Z,99.99
2019-04-02T11:10:26.860Z,99.99
2019-04-02T11:11:26.847Z,99.99
2019-04-02T11:12:26.838Z,99.99
2019-04-02T11:13:26.829Z,99.99
2019-04-02T11:14:26.818Z,99.99
2019-04-02T11:15:26.807Z,99.99
2019-04-02T11:16:26.799Z,99.99
2019-04-02T11:17:26.788Z,99.99
2019-04-02T11:18:26.779Z,99.99
2019-04-02T11:19:26.769Z,99.99
2019-04-02T11:20:26.759Z,99.99
2019-04-02T11:21:26.750Z,99.99
2019-04-02T11:22:26.741Z,99.99
2019-04-02T11:23:26.730Z,99.99
2019-04-02T11:24:28.056Z,99.99
2019-04-02T11:25:26.712Z,99.99
2019-04-02T11:26:27.057Z,99.99
2019-04-02T11:27:26.692Z,99.99
2019-04-02T11:28:26.683Z,99.99
2019-04-02T11:29:26.676Z,99.99
2019-04-02T11:30:29.390Z,99.99
2019-04-02T11:31:26.655Z,99.99
2019-04-02T11:32:26.645Z,99.99
2019-04-02T11:33:26.669Z,99.99
2019-04-02T11:34:26.628Z,99.99
2019-04-02T11:35:26.620Z,99.99
2019-04-02T11:36:26.608Z,99.99
2019-04-02T11:37:26.600Z,99.99
2019-04-02T11:38:26.592Z,99.99
2019-04-02T11:39:26.608Z,99.99
2019-04-02T11:40:26.571Z,99.99
2019-04-02T11:41:26.562Z,99.99
2019-04-02T11:42:26.554Z,99.99
2019-04-02T11:43:26.543Z,99.99
2019-04-02T11:44:26.535Z,99.99
2019-04-02T11:45:26.528Z,99.99
2019-04-02T11:46:27.812Z,99.99
2019-04-02T11:47:26.507Z,99.99
2019-04-02T11:48:26.499Z,99.99
2019-04-02T11:49:26.490Z,99.99
2019-04-02T11:50:26.481Z,99.99
2019-04-02T11:51:26.471Z,99.99
2019-04-02T11:52:26.463Z,99.99
2019-04-02T11:53:26.454Z,99.99
2019-04-02T11:54:26.446Z,99.99
2019-04-02T11:55:26.438Z,99.99
2019-04-02T11:56:26.427Z,99.99
2019-04-02T11:57:26.501Z,99.99
2019-04-02T11:58:26.410Z,99.99
2019-04-02T11:59:26.452Z,99.99
2019-04-02T12:00:26.393Z,99.99
2019-04-02T12:01:26.384Z,99.99
2019-04-02T12:02:26.379Z,99.99
2019-04-02T12:03:26.366Z,99.99
2019-04-02T12:04:26.358Z,99.99
2019-04-02T12:05:26.350Z,99.99
2019-04-02T12:06:32.815Z,99.99
2019-04-02T12:07:26.336Z,99.99
2019-04-02T12:08:26.327Z,99.99
2019-04-02T12:09:26.317Z,99.99
2019-04-02T12:10:26.311Z,99.99
2019-04-02T12:11:26.328Z,99.99
2019-04-02T12:12:26.291Z,99.99
2019-04-02T12:13:26.282Z,99.99
2019-04-02T12:14:26.275Z,99.99
2019-04-02T12:15:40.366Z,99.99
2019-04-02T12:16:27.760Z,99.99
2019-04-02T12:17:26.249Z,99.99
2019-04-02T12:18:26.241Z,99.99
2019-04-02T12:19:26.232Z,99.80
2019-04-02T12:20:26.226Z,97.85
2019-04-02T12:21:26.216Z,98.13
2019-04-02T12:22:26.292Z,99.37
2019-04-02T12:23:26.203Z,98.80
2019-04-02T12:24:26.200Z,97.75
2019-04-02T12:25:26.186Z,95.56
2019-04-02T12:26:26.177Z,94.31
2019-04-02T12:27:26.169Z,94.41
2019-04-02T12:28:26.162Z,94.12
2019-04-02T12:29:26.155Z,94.31
2019-04-02T12:30:26.153Z,92.88
2019-04-02T12:31:26.139Z,91.74
2019-04-02T12:32:26.134Z,92.69
2019-04-02T12:33:26.125Z,93.84
2019-04-02T12:34:26.117Z,93.74
2019-04-02T12:35:26.109Z,93.07
2019-04-02T12:36:26.101Z,91.55
2019-04-02T12:37:26.096Z,91.78
2019-04-02T12:38:26.088Z,91.30
2019-04-02T12:39:26.078Z,91.11
2019-04-02T12:40:26.071Z,89.39
2019-04-02T12:41:26.064Z,89.49
2019-04-02T12:42:26.056Z,90.06
2019-04-02T12:43:26.048Z,89.59
2019-04-02T12:44:26.040Z,88.44
2019-04-02T12:45:26.033Z,89.01
2019-04-02T12:46:26.026Z,88.92
2019-04-02T12:47:26.520Z,88.25
2019-04-02T12:48:26.011Z,86.24
2019-04-02T12:49:26.003Z,85.77
2019-04-02T12:50:26.004Z,85.48
2019-04-02T12:51:25.987Z,85.10
2019-04-02T12:52:25.982Z,85.77